»·PEaware :: N69728 KLAS-KGCN

N69728 :: KLAS-KGCN

FLIGHT INFORMATION

Flight Status: Arrived
Operator: Privately registered:
United States
More flights under this callsign
Pilot: Cory C. (27911)
Aircraft: CESSNA 310
(C310)
More flights by this aircraft type
Origin: KLAS McCarran Intl
United States
Destination: KGCN Grand Canyon Natl Park
United States
More flights between these airports :: More routes between these airports
Route: +LAS V562 PGS V208 GCN
File this flight plan on PilotEdge
Remarks:
Altitude:
(Current/Filed)
9,000ft
Speed:
(Current/Filed)
200kts
Departed: 26-May-20 05:28 PM
Arrived: 26-May-20 06:21 PM
Distance/Time
Traveled:
146nm/0:53
Distance/Time
To Go:
Arrived

Flight Plot

Page will automatically refresh every two minutes.

Flight plan parsing failed; only flown route is shown


Map Options




Map Legend


Flown Route
Filed Route
Departure Airport
Arrival Airport
Navaid (VOR, NDB)
Fix

Horizontal Profiles

Position Reports

Time Latitude Longitude Heading Altitude Ground
Speed
26-May-20 16:52 36.080914 -115.171337 89 2170ft 0kts
26-May-20 16:53 36.080914 -115.171337 89 2170ft 0kts
26-May-20 16:54 36.080914 -115.171337 89 2170ft 0kts
26-May-20 16:55 36.080914 -115.171337 89 2170ft 0kts
26-May-20 16:56 36.080914 -115.171337 89 2170ft 0kts
26-May-20 16:57 36.080914 -115.171337 89 2170ft 0kts
26-May-20 16:58 36.080914 -115.171337 89 2170ft 0kts
26-May-20 16:59 36.080914 -115.171337 89 2170ft 0kts
26-May-20 17:00 36.080914 -115.171337 89 2170ft 0kts
26-May-20 17:01 36.080914 -115.171337 89 2170ft 0kts
26-May-20 17:02 36.080914 -115.171337 89 2170ft 0kts
26-May-20 17:03 36.080914 -115.171337 89 2170ft 0kts
26-May-20 17:04 36.080914 -115.171337 89 2170ft 0kts
26-May-20 17:05 36.080914 -115.171337 89 2170ft 0kts
26-May-20 17:06 36.080914 -115.171337 89 2170ft 0kts
26-May-20 17:07 36.080914 -115.171337 89 2170ft 0kts
26-May-20 17:08 36.080914 -115.171337 89 2170ft 0kts
26-May-20 17:09 36.080914 -115.171337 89 2170ft 0kts
26-May-20 17:10 36.080914 -115.171337 89 2170ft 0kts
26-May-20 17:11 36.080914 -115.171337 89 2170ft 0kts
26-May-20 17:12 36.080914 -115.171337 89 2170ft 0kts
26-May-20 17:13 36.080914 -115.171337 89 2170ft 0kts
26-May-20 17:14 36.080914 -115.171337 89 2170ft 0kts
26-May-20 17:15 36.080914 -115.171337 89 2170ft 0kts
26-May-20 17:16 36.080914 -115.171337 89 2170ft 0kts
26-May-20 17:17 36.080914 -115.171290 89 2170ft 1kts
26-May-20 17:18 36.081574 -115.169270 55 2164ft 12kts
26-May-20 17:19 36.085060 -115.167194 24 2151ft 18kts
26-May-20 17:20 36.089197 -115.164837 24 2134ft 20kts
26-May-20 17:21 36.093371 -115.162441 24 2113ft 22kts
26-May-20 17:22 36.097586 -115.160033 25 2097ft 21kts
26-May-20 17:23 36.099779 -115.157546 86 2085ft 0kts
26-May-20 17:24 36.099779 -115.157546 86 2085ft 0kts
26-May-20 17:25 36.099779 -115.157546 86 2085ft 0kts
26-May-20 17:26 36.098707 -115.157097 207 2085ft 39kts
26-May-20 17:27 36.070236 -115.172038 192 3434ft 124kts
26-May-20 17:28 36.030378 -115.169093 119 6184ft 113kts
26-May-20 17:29 36.040035 -115.129198 57 7981ft 133kts
26-May-20 17:30 36.040035 -115.129198 57 7981ft 133kts
26-May-20 17:33 36.060386 -115.093884 57 9679ft 134kts
26-May-20 17:34 36.080525 -115.051905 67 11170ft 149kts
26-May-20 17:35 36.103848 -114.996947 73 11686ft 182kts
26-May-20 17:36 36.108104 -114.922958 83 11105ft 217kts
26-May-20 17:37 36.117932 -114.848574 75 11115ft 216kts
26-May-20 17:38 36.129441 -114.774716 80 11092ft 217kts
26-May-20 17:39 36.137461 -114.700139 80 11149ft 215kts
26-May-20 17:40 36.146699 -114.626433 83 11168ft 216kts
26-May-20 17:41 36.155076 -114.552463 76 11170ft 216kts
26-May-20 17:42 36.166200 -114.478755 80 11116ft 217kts
26-May-20 17:43 36.135570 -114.420360 139 11124ft 222kts
26-May-20 17:44 36.091488 -114.367426 123 11176ft 219kts
26-May-20 17:45 36.057575 -114.303480 120 11139ft 222kts
26-May-20 17:46 36.023626 -114.239945 132 11153ft 220kts
26-May-20 17:47 35.993269 -114.176834 87 11154ft 218kts
26-May-20 17:48 35.995679 -114.101810 88 11186ft 218kts
26-May-20 17:49 35.995382 -114.024889 89 11199ft 220kts
26-May-20 17:50 35.994156 -113.946029 88 11225ft 222kts
26-May-20 17:52 35.996224 -113.866297 86 11158ft 223kts
26-May-20 17:53 35.995285 -113.787834 91 11208ft 222kts
26-May-20 17:54 35.994999 -113.709883 89 11178ft 223kts
26-May-20 17:55 35.993061 -113.632503 89 11234ft 220kts
26-May-20 17:56 35.992501 -113.555963 87 11165ft 219kts
26-May-20 17:57 35.990529 -113.479833 91 11189ft 217kts
26-May-20 17:58 35.988421 -113.404745 88 11154ft 220kts
26-May-20 17:59 35.987075 -113.329032 88 11214ft 221kts
26-May-20 18:00 35.984917 -113.252813 91 11305ft 220kts
26-May-20 18:01 35.982217 -113.174572 90 11055ft 228kts
26-May-20 18:02 35.979872 -113.096270 102 10847ft 230kts
26-May-20 18:03 35.980497 -113.021330 90 11167ft 218kts
26-May-20 18:04 35.976264 -112.945384 95 11257ft 218kts
26-May-20 18:05 35.974691 -112.867806 92 10941ft 232kts
26-May-20 18:05 35.971850 -112.804255 98 11061ft 228kts
26-May-20 18:07 35.945973 -112.712577 117 9890ft 238kts
26-May-20 18:08 35.920616 -112.639038 112 9510ft 235kts
26-May-20 18:08 35.899353 -112.577384 113 9139ft 232kts
26-May-20 18:10 35.872293 -112.496241 111 8982ft 207kts
26-May-20 18:10 35.854669 -112.442980 108 8963ft 200kts
26-May-20 18:11 35.833752 -112.381309 108 8945ft 194kts
26-May-20 18:13 35.809896 -112.312147 114 8994ft 182kts
26-May-20 18:13 35.825234 -112.272370 25 8899ft 186kts
26-May-20 18:14 35.870598 -112.237775 26 8390ft 188kts
26-May-20 18:15 35.909142 -112.192150 43 7728ft 195kts
26-May-20 18:16 35.955324 -112.163266 14 7440ft 172kts
26-May-20 18:17 35.992737 -112.136904 49 7510ft 129kts
26-May-20 18:18 35.980166 -112.116515 214 7296ft 107kts
26-May-20 18:19 35.957288 -112.141755 220 6611ft 84kts
26-May-20 18:20 35.952091 -112.145431 44 6596ft 1kts
26-May-20 18:21 35.953461 -112.143942 43 6601ft 5kts
26-May-20 18:22 35.953723 -112.143636 43 6604ft 2kts
26-May-20 18:23 35.954009 -112.142960 71 6606ft 0kts
26-May-20 18:24 35.954009 -112.142960 71 6606ft 0kts
26-May-20 18:25 35.954022 -112.142909 71 6607ft 0kts
26-May-20 18:26 35.954042 -112.142837 71 6607ft 0kts
26-May-20 18:27 35.954042 -112.142837 71 6607ft 0kts
26-May-20 18:28 35.954042 -112.142837 71 6607ft 0kts
26-May-20 18:29 35.954042 -112.142837 71 6607ft 0kts
26-May-20 18:30 35.954042 -112.142837 71 6607ft 0kts
26-May-20 18:31 35.954042 -112.142837 71 6607ft 0kts
26-May-20 18:32 35.954042 -112.142837 71 6607ft 0kts
26-May-20 18:33 35.954042 -112.142837 71 6607ft 0kts
26-May-20 18:34 35.954042 -112.142837 71 6607ft 0kts
26-May-20 18:35 35.954042 -112.142837 71 6607ft 0kts

Navigation Log

Ident Type
Flight plan parsing failed, navigation log unavailable